sensor_id;sensor_type;location;lat;lon;timestamp;pressure;altitude;pressure_sealevel;temperature;humidity
80137;BME280;69466;55.948;37.484;2023-12-07T00:01:29;101490.59;;;-8.28;71.12
80137;BME280;69466;55.948;37.484;2023-12-07T00:03:55;101491.81;;;-8.36;71.36
80137;BME280;69466;55.948;37.484;2023-12-07T00:06:21;101502.84;;;-8.27;71.10
80137;BME280;69466;55.948;37.484;2023-12-07T00:08:47;101502.03;;;-8.29;70.94
80137;BME280;69466;55.948;37.484;2023-12-07T00:11:13;101498.47;;;-8.26;71.16
80137;BME280;69466;55.948;37.484;2023-12-07T00:13:39;101503.97;;;-8.32;71.75
80137;BME280;69466;55.948;37.484;2023-12-07T00:16:05;101513.00;;;-8.39;71.56
80137;BME280;69466;55.948;37.484;2023-12-07T00:18:31;101511.44;;;-8.45;71.76
80137;BME280;69466;55.948;37.484;2023-12-07T00:20:57;101498.13;;;-8.40;71.56
80137;BME280;69466;55.948;37.484;2023-12-07T00:23:23;101513.16;;;-8.44;71.39
80137;BME280;69466;55.948;37.484;2023-12-07T00:25:49;101500.47;;;-8.58;71.43
80137;BME280;69466;55.948;37.484;2023-12-07T00:28:16;101505.50;;;-8.52;72.00
80137;BME280;69466;55.948;37.484;2023-12-07T00:30:42;101513.31;;;-8.48;71.60
80137;BME280;69466;55.948;37.484;2023-12-07T00:33:10;101519.69;;;-8.56;72.20
80137;BME280;69466;55.948;37.484;2023-12-07T00:35:36;101515.94;;;-8.48;71.89
80137;BME280;69466;55.948;37.484;2023-12-07T00:38:02;101502.16;;;-8.57;72.19
80137;BME280;69466;55.948;37.484;2023-12-07T00:40:28;101506.50;;;-8.54;72.06
80137;BME280;69466;55.948;37.484;2023-12-07T00:42:54;101520.91;;;-8.66;72.02
80137;BME280;69466;55.948;37.484;2023-12-07T00:45:20;101530.03;;;-8.76;72.33
80137;BME280;69466;55.948;37.484;2023-12-07T00:47:46;101526.31;;;-8.70;72.76
80137;BME280;69466;55.948;37.484;2023-12-07T00:50:12;101525.63;;;-8.75;72.75
80137;BME280;69466;55.948;37.484;2023-12-07T00:52:39;101521.72;;;-8.90;73.00
80137;BME280;69466;55.948;37.484;2023-12-07T00:55:05;101528.41;;;-8.80;73.16
80137;BME280;69466;55.948;37.484;2023-12-07T00:57:32;101526.59;;;-8.78;72.74
80137;BME280;69466;55.948;37.484;2023-12-07T00:59:58;101533.47;;;-8.74;73.31
80137;BME280;69466;55.948;37.484;2023-12-07T01:02:24;101530.19;;;-8.80;73.07
80137;BME280;69466;55.948;37.484;2023-12-07T01:04:50;101536.50;;;-8.86;73.13
80137;BME280;69466;55.948;37.484;2023-12-07T01:07:15;101517.53;;;-8.95;73.66
80137;BME280;69466;55.948;37.484;2023-12-07T01:09:41;101537.41;;;-8.87;73.26
80137;BME280;69466;55.948;37.484;2023-12-07T01:12:07;101534.72;;;-8.85;73.77
80137;BME280;69466;55.948;37.484;2023-12-07T01:14:33;101521.59;;;-8.85;73.55
80137;BME280;69466;55.948;37.484;2023-12-07T01:16:59;101528.94;;;-8.97;73.99
80137;BME280;69466;55.948;37.484;2023-12-07T01:19:25;101532.03;;;-8.84;73.50
80137;BME280;69466;55.948;37.484;2023-12-07T01:21:51;101534.44;;;-8.76;73.67
80137;BME280;69466;55.948;37.484;2023-12-07T01:24:17;101524.50;;;-8.94;73.15
80137;BME280;69466;55.948;37.484;2023-12-07T01:26:43;101528.59;;;-8.86;73.18
80137;BME280;69466;55.948;37.484;2023-12-07T01:29:09;101541.50;;;-8.78;73.13
80137;BME280;69466;55.948;37.484;2023-12-07T01:31:35;101537.25;;;-8.82;72.95
80137;BME280;69466;55.948;37.484;2023-12-07T01:34:01;101548.53;;;-8.79;73.33
80137;BME280;69466;55.948;37.484;2023-12-07T01:36:27;101553.94;;;-8.83;73.71
80137;BME280;69466;55.948;37.484;2023-12-07T01:38:53;101553.00;;;-8.81;73.23
80137;BME280;69466;55.948;37.484;2023-12-07T01:41:19;101555.66;;;-8.82;72.91
80137;BME280;69466;55.948;37.484;2023-12-07T01:43:45;101561.63;;;-8.77;72.54
80137;BME280;69466;55.948;37.484;2023-12-07T01:46:12;101549.47;;;-8.80;73.21
80137;BME280;69466;55.948;37.484;2023-12-07T01:48:39;101561.22;;;-8.91;72.86
80137;BME280;69466;55.948;37.484;2023-12-07T01:51:06;101568.44;;;-8.98;73.36
80137;BME280;69466;55.948;37.484;2023-12-07T01:53:32;101549.25;;;-9.02;72.92
80137;BME280;69466;55.948;37.484;2023-12-07T01:55:59;101575.09;;;-8.86;72.68
80137;BME280;69466;55.948;37.484;2023-12-07T01:58:25;101574.34;;;-8.90;72.71
80137;BME280;69466;55.948;37.484;2023-12-07T02:00:51;101576.44;;;-9.01;73.15
80137;BME280;69466;55.948;37.484;2023-12-07T02:03:18;101573.84;;;-9.03;72.76
80137;BME280;69466;55.948;37.484;2023-12-07T02:05:47;101581.53;;;-8.97;72.66
80137;BME280;69466;55.948;37.484;2023-12-07T02:08:14;101576.56;;;-9.06;72.27
80137;BME280;69466;55.948;37.484;2023-12-07T02:10:41;101571.56;;;-9.13;72.38
80137;BME280;69466;55.948;37.484;2023-12-07T02:13:07;101569.97;;;-9.19;72.44
80137;BME280;69466;55.948;37.484;2023-12-07T02:15:35;101578.44;;;-9.09;72.66
80137;BME280;69466;55.948;37.484;2023-12-07T02:18:14;101584.78;;;-9.16;72.30
80137;BME280;69466;55.948;37.484;2023-12-07T02:21:21;101587.22;;;-9.10;72.96
80137;BME280;69466;55.948;37.484;2023-12-07T02:23:51;101601.19;;;-9.08;72.67
80137;BME280;69466;55.948;37.484;2023-12-07T02:29:31;101586.03;;;-9.00;71.87
80137;BME280;69466;55.948;37.484;2023-12-07T02:46:39;101590.00;;;-9.15;72.41
80137;BME280;69466;55.948;37.484;2023-12-07T02:49:05;101585.25;;;-9.31;72.66
80137;BME280;69466;55.948;37.484;2023-12-07T02:51:31;101596.00;;;-9.11;72.58
80137;BME280;69466;55.948;37.484;2023-12-07T02:53:57;101595.34;;;-9.18;71.93
80137;BME280;69466;55.948;37.484;2023-12-07T02:56:23;101596.16;;;-9.16;72.46
80137;BME280;69466;55.948;37.484;2023-12-07T02:58:49;101598.66;;;-9.11;72.13
80137;BME280;69466;55.948;37.484;2023-12-07T03:01:15;101604.72;;;-9.09;72.54
80137;BME280;69466;55.948;37.484;2023-12-07T03:03:41;101602.06;;;-9.08;72.26
80137;BME280;69466;55.948;37.484;2023-12-07T03:06:08;101612.59;;;-9.08;71.85
80137;BME280;69466;55.948;37.484;2023-12-07T03:08:34;101609.03;;;-9.07;72.25
80137;BME280;69466;55.948;37.484;2023-12-07T03:11:00;101602.25;;;-9.14;72.59
80137;BME280;69466;55.948;37.484;2023-12-07T03:13:26;101621.50;;;-9.13;72.54
80137;BME280;69466;55.948;37.484;2023-12-07T03:15:51;101609.56;;;-9.25;72.29
80137;BME280;69466;55.948;37.484;2023-12-07T03:18:17;101628.22;;;-9.32;72.58
80137;BME280;69466;55.948;37.484;2023-12-07T03:20:43;101621.81;;;-9.24;73.03
80137;BME280;69466;55.948;37.484;2023-12-07T03:23:09;101608.94;;;-9.33;72.47
80137;BME280;69466;55.948;37.484;2023-12-07T03:25:35;101627.69;;;-9.16;72.31
80137;BME280;69466;55.948;37.484;2023-12-07T03:28:01;101624.16;;;-9.15;72.71
80137;BME280;69466;55.948;37.484;2023-12-07T03:30:27;101627.81;;;-9.19;72.05
80137;BME280;69466;55.948;37.484;2023-12-07T03:32:53;101632.09;;;-9.16;72.14
80137;BME280;69466;55.948;37.484;2023-12-07T03:35:19;101628.09;;;-9.29;72.38
80137;BME280;69466;55.948;37.484;2023-12-07T03:37:45;101624.84;;;-9.37;72.78
80137;BME280;69466;55.948;37.484;2023-12-07T03:40:11;101637.13;;;-9.38;72.61
80137;BME280;69466;55.948;37.484;2023-12-07T03:42:37;101641.00;;;-9.51;72.87
80137;BME280;69466;55.948;37.484;2023-12-07T03:45:03;101643.66;;;-9.53;73.05
80137;BME280;69466;55.948;37.484;2023-12-07T03:47:31;101629.63;;;-9.52;72.84
80137;BME280;69466;55.948;37.484;2023-12-07T03:49:57;101644.63;;;-9.55;72.60
80137;BME280;69466;55.948;37.484;2023-12-07T03:52:23;101639.59;;;-9.63;73.55
80137;BME280;69466;55.948;37.484;2023-12-07T03:54:49;101648.91;;;-9.51;73.61
80137;BME280;69466;55.948;37.484;2023-12-07T03:57:15;101658.66;;;-9.56;73.28
80137;BME280;69466;55.948;37.484;2023-12-07T03:59:41;101645.88;;;-9.68;73.26
80137;BME280;69466;55.948;37.484;2023-12-07T04:02:07;101648.63;;;-9.73;72.89
80137;BME280;69466;55.948;37.484;2023-12-07T04:04:33;101658.31;;;-9.75;73.37
80137;BME280;69466;55.948;37.484;2023-12-07T04:06:59;101654.16;;;-9.83;72.92
80137;BME280;69466;55.948;37.484;2023-12-07T04:09:25;101671.91;;;-9.93;73.23
80137;BME280;69466;55.948;37.484;2023-12-07T04:11:51;101656.13;;;-9.92;73.76
80137;BME280;69466;55.948;37.484;2023-12-07T04:14:17;101658.06;;;-9.98;74.09
80137;BME280;69466;55.948;37.484;2023-12-07T04:16:43;101660.53;;;-9.92;74.24
80137;BME280;69466;55.948;37.484;2023-12-07T04:19:09;101662.66;;;-9.74;73.92
80137;BME280;69466;55.948;37.484;2023-12-07T04:21:35;101673.94;;;-9.70;73.61
80137;BME280;69466;55.948;37.484;2023-12-07T04:24:01;101648.75;;;-9.77;73.89
80137;BME280;69466;55.948;37.484;2023-12-07T04:26:27;101664.28;;;-9.70;73.29
80137;BME280;69466;55.948;37.484;2023-12-07T04:28:54;101672.28;;;-9.73;73.12
80137;BME280;69466;55.948;37.484;2023-12-07T04:31:20;101661.13;;;-9.81;73.18
80137;BME280;69466;55.948;37.484;2023-12-07T04:33:47;101671.63;;;-9.81;72.98
80137;BME280;69466;55.948;37.484;2023-12-07T04:36:12;101658.44;;;-9.79;73.28
80137;BME280;69466;55.948;37.484;2023-12-07T04:38:39;101673.16;;;-9.74;73.10
80137;BME280;69466;55.948;37.484;2023-12-07T04:41:05;101687.03;;;-9.69;73.36
80137;BME280;69466;55.948;37.484;2023-12-07T04:43:31;101676.75;;;-9.76;72.97
80137;BME280;69466;55.948;37.484;2023-12-07T04:45:57;101665.53;;;-9.83;73.61
80137;BME280;69466;55.948;37.484;2023-12-07T04:48:23;101690.66;;;-9.73;73.09
80137;BME280;69466;55.948;37.484;2023-12-07T04:50:49;101680.22;;;-9.76;73.31
80137;BME280;69466;55.948;37.484;2023-12-07T04:53:15;101680.88;;;-9.68;73.18
80137;BME280;69466;55.948;37.484;2023-12-07T04:55:41;101683.78;;;-9.78;73.28
80137;BME280;69466;55.948;37.484;2023-12-07T04:58:12;101694.16;;;-9.72;73.43
80137;BME280;69466;55.948;37.484;2023-12-07T05:00:38;101691.56;;;-9.75;73.12
80137;BME280;69466;55.948;37.484;2023-12-07T05:03:04;101692.63;;;-9.81;73.53
80137;BME280;69466;55.948;37.484;2023-12-07T05:05:30;101687.25;;;-9.76;73.00
80137;BME280;69466;55.948;37.484;2023-12-07T05:07:56;101699.34;;;-9.71;73.18
80137;BME280;69466;55.948;37.484;2023-12-07T05:10:22;101703.91;;;-9.77;73.50
80137;BME280;69466;55.948;37.484;2023-12-07T05:12:48;101707.66;;;-9.88;73.48
80137;BME280;69466;55.948;37.484;2023-12-07T05:15:15;101700.41;;;-9.78;73.08
80137;BME280;69466;55.948;37.484;2023-12-07T05:17:41;101695.19;;;-9.79;73.48
80137;BME280;69466;55.948;37.484;2023-12-07T05:20:08;101705.53;;;-9.72;73.22
80137;BME280;69466;55.948;37.484;2023-12-07T05:22:34;101701.94;;;-9.69;73.22
80137;BME280;69466;55.948;37.484;2023-12-07T05:25:00;101715.19;;;-9.74;73.50
80137;BME280;69466;55.948;37.484;2023-12-07T05:27:28;101712.81;;;-9.83;73.35
80137;BME280;69466;55.948;37.484;2023-12-07T05:29:53;101712.88;;;-9.86;73.51
80137;BME280;69466;55.948;37.484;2023-12-07T05:32:20;101734.66;;;-9.81;73.19
80137;BME280;69466;55.948;37.484;2023-12-07T05:34:46;101718.16;;;-9.88;73.69
80137;BME280;69466;55.948;37.484;2023-12-07T05:37:12;101713.69;;;-9.84;73.55
80137;BME280;69466;55.948;37.484;2023-12-07T05:39:38;101723.94;;;-9.73;72.96
80137;BME280;69466;55.948;37.484;2023-12-07T05:42:04;101724.19;;;-9.84;73.72
80137;BME280;69466;55.948;37.484;2023-12-07T05:44:30;101731.84;;;-9.75;73.46
80137;BME280;69466;55.948;37.484;2023-12-07T05:46:56;101732.13;;;-9.85;73.21
80137;BME280;69466;55.948;37.484;2023-12-07T05:49:23;101732.03;;;-9.82;73.29
80137;BME280;69466;55.948;37.484;2023-12-07T05:51:49;101726.88;;;-9.85;73.09
80137;BME280;69466;55.948;37.484;2023-12-07T05:54:15;101733.56;;;-9.74;73.61
80137;BME280;69466;55.948;37.484;2023-12-07T05:56:41;101727.25;;;-9.67;73.16
80137;BME280;69466;55.948;37.484;2023-12-07T05:59:09;101735.09;;;-9.65;73.10
80137;BME280;69466;55.948;37.484;2023-12-07T06:01:35;101737.88;;;-9.71;72.78
80137;BME280;69466;55.948;37.484;2023-12-07T06:04:01;101727.47;;;-9.76;72.56
80137;BME280;69466;55.948;37.484;2023-12-07T06:06:27;101730.97;;;-9.75;72.65
80137;BME280;69466;55.948;37.484;2023-12-07T06:08:54;101748.50;;;-9.76;72.23
80137;BME280;69466;55.948;37.484;2023-12-07T06:11:20;101743.09;;;-9.70;72.59
80137;BME280;69466;55.948;37.484;2023-12-07T06:13:46;101740.50;;;-9.71;72.18
80137;BME280;69466;55.948;37.484;2023-12-07T06:16:12;101744.84;;;-9.70;72.90
80137;BME280;69466;55.948;37.484;2023-12-07T06:18:42;101757.94;;;-9.67;71.99
80137;BME280;69466;55.948;37.484;2023-12-07T06:21:08;101750.75;;;-9.62;72.12
80137;BME280;69466;55.948;37.484;2023-12-07T06:23:35;101738.59;;;-9.65;72.70
80137;BME280;69466;55.948;37.484;2023-12-07T06:26:02;101748.88;;;-9.57;72.58
80137;BME280;69466;55.948;37.484;2023-12-07T06:28:28;101740.97;;;-9.56;72.14
80137;BME280;69466;55.948;37.484;2023-12-07T06:30:54;101749.69;;;-9.54;72.28
80137;BME280;69466;55.948;37.484;2023-12-07T06:33:19;101755.00;;;-9.57;71.80
80137;BME280;69466;55.948;37.484;2023-12-07T06:35:49;101756.59;;;-9.50;72.19
80137;BME280;69466;55.948;37.484;2023-12-07T06:38:15;101732.06;;;-9.50;71.21
80137;BME280;69466;55.948;37.484;2023-12-07T06:40:40;101753.00;;;-9.47;71.24
80137;BME280;69466;55.948;37.484;2023-12-07T06:43:06;101755.06;;;-9.26;71.21
80137;BME280;69466;55.948;37.484;2023-12-07T06:45:32;101753.16;;;-9.21;70.40
80137;BME280;69466;55.948;37.484;2023-12-07T06:47:59;101754.94;;;-9.21;70.64
80137;BME280;69466;55.948;37.484;2023-12-07T06:50:25;101753.28;;;-9.25;70.88
80137;BME280;69466;55.948;37.484;2023-12-07T06:52:51;101736.06;;;-9.35;70.67
80137;BME280;69466;55.948;37.484;2023-12-07T06:55:17;101750.19;;;-9.09;70.66
80137;BME280;69466;55.948;37.484;2023-12-07T06:57:43;101757.25;;;-9.11;70.67
80137;BME280;69466;55.948;37.484;2023-12-07T07:00:11;101746.06;;;-9.17;70.51
80137;BME280;69466;55.948;37.484;2023-12-07T07:02:38;101744.19;;;-9.14;71.19
80137;BME280;69466;55.948;37.484;2023-12-07T07:05:05;101760.31;;;-8.95;70.40
80137;BME280;69466;55.948;37.484;2023-12-07T07:07:32;101749.88;;;-8.98;70.55
80137;BME280;69466;55.948;37.484;2023-12-07T07:09:58;101755.22;;;-9.01;70.49
80137;BME280;69466;55.948;37.484;2023-12-07T07:12:24;101745.41;;;-8.94;70.17
80137;BME280;69466;55.948;37.484;2023-12-07T07:14:50;101739.28;;;-8.95;69.93
80137;BME280;69466;55.948;37.484;2023-12-07T07:17:16;101759.31;;;-8.91;69.03
80137;BME280;69466;55.948;37.484;2023-12-07T07:19:43;101757.41;;;-8.84;68.97
80137;BME280;69466;55.948;37.484;2023-12-07T07:22:09;101761.31;;;-8.70;68.82
80137;BME280;69466;55.948;37.484;2023-12-07T07:24:35;101756.56;;;-8.86;68.52
80137;BME280;69466;55.948;37.484;2023-12-07T07:27:01;101771.13;;;-8.75;68.47
80137;BME280;69466;55.948;37.484;2023-12-07T07:29:27;101759.16;;;-8.85;67.90
80137;BME280;69466;55.948;37.484;2023-12-07T07:31:53;101755.06;;;-8.66;67.59
80137;BME280;69466;55.948;37.484;2023-12-07T07:34:19;101756.06;;;-8.70;67.78
80137;BME280;69466;55.948;37.484;2023-12-07T07:36:45;101747.97;;;-8.62;67.43
80137;BME280;69466;55.948;37.484;2023-12-07T07:39:13;101770.91;;;-8.67;67.49
80137;BME280;69466;55.948;37.484;2023-12-07T07:41:39;101778.19;;;-8.75;67.89
80137;BME280;69466;55.948;37.484;2023-12-07T07:44:05;101776.25;;;-8.70;67.42
80137;BME280;69466;55.948;37.484;2023-12-07T07:46:31;101777.63;;;-8.88;67.95
80137;BME280;69466;55.948;37.484;2023-12-07T07:48:57;101774.28;;;-8.93;67.63
80137;BME280;69466;55.948;37.484;2023-12-07T07:51:23;101769.13;;;-8.96;68.57
80137;BME280;69466;55.948;37.484;2023-12-07T07:53:49;101780.38;;;-8.91;67.61
80137;BME280;69466;55.948;37.484;2023-12-07T07:56:16;101773.50;;;-8.97;68.28
80137;BME280;69466;55.948;37.484;2023-12-07T07:58:41;101775.13;;;-8.92;68.24
80137;BME280;69466;55.948;37.484;2023-12-07T08:01:07;101769.00;;;-8.93;68.29
80137;BME280;69466;55.948;37.484;2023-12-07T08:03:33;101775.13;;;-8.92;68.25
80137;BME280;69466;55.948;37.484;2023-12-07T08:05:59;101755.69;;;-8.87;67.83
80137;BME280;69466;55.948;37.484;2023-12-07T08:08:25;101776.00;;;-8.92;68.01
80137;BME280;69466;55.948;37.484;2023-12-07T08:10:52;101772.72;;;-8.99;68.15
80137;BME280;69466;55.948;37.484;2023-12-07T08:13:18;101785.16;;;-9.05;68.24
80137;BME280;69466;55.948;37.484;2023-12-07T08:15:44;101774.16;;;-8.88;67.78
80137;BME280;69466;55.948;37.484;2023-12-07T08:18:10;101789.72;;;-8.81;67.94
80137;BME280;69466;55.948;37.484;2023-12-07T08:20:37;101781.31;;;-8.93;68.02
80137;BME280;69466;55.948;37.484;2023-12-07T08:23:03;101771.38;;;-8.84;67.71
80137;BME280;69466;55.948;37.484;2023-12-07T08:25:29;101777.38;;;-8.79;67.00
80137;BME280;69466;55.948;37.484;2023-12-07T08:27:57;101766.91;;;-8.80;67.48
80137;BME280;69466;55.948;37.484;2023-12-07T08:30:26;101778.84;;;-8.69;66.97
80137;BME280;69466;55.948;37.484;2023-12-07T08:32:51;101767.06;;;-8.85;67.30
80137;BME280;69466;55.948;37.484;2023-12-07T08:35:18;101775.28;;;-8.66;66.90
80137;BME280;69466;55.948;37.484;2023-12-07T08:37:43;101772.19;;;-8.80;67.56
80137;BME280;69466;55.948;37.484;2023-12-07T08:40:10;101772.22;;;-8.82;67.35
80137;BME280;69466;55.948;37.484;2023-12-07T08:42:37;101762.56;;;-8.81;66.92
80137;BME280;69466;55.948;37.484;2023-12-07T08:45:04;101761.56;;;-8.77;66.97
80137;BME280;69466;55.948;37.484;2023-12-07T08:47:33;101767.72;;;-8.78;66.96
80137;BME280;69466;55.948;37.484;2023-12-07T08:49:59;101766.84;;;-8.79;67.45
80137;BME280;69466;55.948;37.484;2023-12-07T08:52:25;101760.03;;;-8.84;66.96
80137;BME280;69466;55.948;37.484;2023-12-07T08:54:54;101762.47;;;-8.78;67.11
80137;BME280;69466;55.948;37.484;2023-12-07T08:57:20;101774.63;;;-8.74;66.86
80137;BME280;69466;55.948;37.484;2023-12-07T08:59:46;101766.38;;;-8.93;67.15
80137;BME280;69466;55.948;37.484;2023-12-07T09:02:12;101757.22;;;-9.09;67.82
80137;BME280;69466;55.948;37.484;2023-12-07T09:04:37;101764.88;;;-9.02;67.29
80137;BME280;69466;55.948;37.484;2023-12-07T09:07:05;101762.97;;;-8.95;67.40
80137;BME280;69466;55.948;37.484;2023-12-07T09:09:32;101779.91;;;-9.07;67.66
80137;BME280;69466;55.948;37.484;2023-12-07T09:11:58;101762.47;;;-9.09;67.34
80137;BME280;69466;55.948;37.484;2023-12-07T09:14:23;101763.59;;;-9.18;67.66
80137;BME280;69466;55.948;37.484;2023-12-07T09:16:52;101765.19;;;-9.12;68.24
80137;BME280;69466;55.948;37.484;2023-12-07T09:19:20;101754.06;;;-9.22;68.02
80137;BME280;69466;55.948;37.484;2023-12-07T09:21:46;101768.09;;;-9.21;68.04
80137;BME280;69466;55.948;37.484;2023-12-07T09:24:15;101769.34;;;-9.04;68.05
80137;BME280;69466;55.948;37.484;2023-12-07T09:26:41;101765.09;;;-9.09;67.39
80137;BME280;69466;55.948;37.484;2023-12-07T09:29:07;101778.16;;;-9.06;68.13
80137;BME280;69466;55.948;37.484;2023-12-07T09:31:35;101770.25;;;-9.05;67.75
80137;BME280;69466;55.948;37.484;2023-12-07T09:34:06;101761.31;;;-8.99;66.90
80137;BME280;69466;55.948;37.484;2023-12-07T09:36:34;101772.50;;;-8.92;66.83
80137;BME280;69466;55.948;37.484;2023-12-07T09:39:00;101767.38;;;-8.97;66.49
80137;BME280;69466;55.948;37.484;2023-12-07T09:41:27;101769.97;;;-8.95;66.14
80137;BME280;69466;55.948;37.484;2023-12-07T09:43:54;101769.88;;;-8.92;66.49
80137;BME280;69466;55.948;37.484;2023-12-07T09:46:22;101763.84;;;-8.96;66.30
80137;BME280;69466;55.948;37.484;2023-12-07T09:48:49;101775.63;;;-9.09;66.42
80137;BME280;69466;55.948;37.484;2023-12-07T09:51:15;101765.09;;;-9.09;66.34
80137;BME280;69466;55.948;37.484;2023-12-07T09:53:42;101759.16;;;-9.16;66.48
80137;BME280;69466;55.948;37.484;2023-12-07T09:56:09;101760.13;;;-9.20;66.27
80137;BME280;69466;55.948;37.484;2023-12-07T09:58:39;101761.34;;;-9.31;66.54
80137;BME280;69466;55.948;37.484;2023-12-07T10:01:05;101768.53;;;-9.38;66.83
80137;BME280;69466;55.948;37.484;2023-12-07T10:03:32;101764.88;;;-9.32;65.93
80137;BME280;69466;55.948;37.484;2023-12-07T10:05:59;101765.53;;;-9.24;66.81
80137;BME280;69466;55.948;37.484;2023-12-07T10:08:33;101763.97;;;-9.31;65.96
80137;BME280;69466;55.948;37.484;2023-12-07T10:11:09;101765.66;;;-9.29;66.41
80137;BME280;69466;55.948;37.484;2023-12-07T10:13:36;101767.34;;;-9.26;66.31
80137;BME280;69466;55.948;37.484;2023-12-07T10:16:09;101768.34;;;-9.30;65.71
80137;BME280;69466;55.948;37.484;2023-12-07T10:18:36;101768.16;;;-9.24;66.03
80137;BME280;69466;55.948;37.484;2023-12-07T10:21:03;101766.50;;;-9.28;65.77
80137;BME280;69466;55.948;37.484;2023-12-07T10:23:29;101756.91;;;-9.29;65.51
80137;BME280;69466;55.948;37.484;2023-12-07T10:26:00;101773.34;;;-9.21;65.98
80137;BME280;69466;55.948;37.484;2023-12-07T10:28:28;101751.88;;;-9.38;65.75
80137;BME280;69466;55.948;37.484;2023-12-07T10:30:54;101769.75;;;-9.19;65.59
80137;BME280;69466;55.948;37.484;2023-12-07T10:33:20;101764.38;;;-9.14;65.58
80137;BME280;69466;55.948;37.484;2023-12-07T10:35:46;101758.16;;;-9.12;65.82
80137;BME280;69466;55.948;37.484;2023-12-07T10:38:14;101756.31;;;-9.08;65.85
80137;BME280;69466;55.948;37.484;2023-12-07T10:40:40;101748.72;;;-9.19;66.07
80137;BME280;69466;55.948;37.484;2023-12-07T10:43:08;101769.53;;;-9.11;66.51
80137;BME280;69466;55.948;37.484;2023-12-07T10:45:35;101773.09;;;-9.12;66.52
80137;BME280;69466;55.948;37.484;2023-12-07T10:48:05;101772.09;;;-9.08;66.12
80137;BME280;69466;55.948;37.484;2023-12-07T10:50:41;101766.03;;;-9.12;66.29
80137;BME280;69466;55.948;37.484;2023-12-07T10:53:26;101764.13;;;-9.05;66.16
80137;BME280;69466;55.948;37.484;2023-12-07T10:55:56;101759.56;;;-8.99;66.08
80137;BME280;69466;55.948;37.484;2023-12-07T10:58:24;101760.66;;;-9.07;66.15
80137;BME280;69466;55.948;37.484;2023-12-07T11:00:52;101764.00;;;-9.02;66.42
80137;BME280;69466;55.948;37.484;2023-12-07T11:03:19;101774.59;;;-9.04;66.02
80137;BME280;69466;55.948;37.484;2023-12-07T11:05:49;101779.19;;;-9.12;65.55
80137;BME280;69466;55.948;37.484;2023-12-07T11:13:27;101792.38;;;-9.13;66.29
80137;BME280;69466;55.948;37.484;2023-12-07T11:15:55;101793.41;;;-9.19;66.16
80137;BME280;69466;55.948;37.484;2023-12-07T11:18:25;101787.50;;;-9.27;66.65
80137;BME280;69466;55.948;37.484;2023-12-07T11:20:53;101775.88;;;-9.18;66.44
80137;BME280;69466;55.948;37.484;2023-12-07T11:23:23;101781.78;;;-9.10;66.70
80137;BME280;69466;55.948;37.484;2023-12-07T11:25:51;101786.09;;;-9.08;66.57
80137;BME280;69466;55.948;37.484;2023-12-07T11:28:18;101776.41;;;-9.06;66.51
80137;BME280;69466;55.948;37.484;2023-12-07T11:31:00;101785.50;;;-9.17;66.85
80137;BME280;69466;55.948;37.484;2023-12-07T11:33:29;101790.91;;;-9.23;66.68
80137;BME280;69466;55.948;37.484;2023-12-07T11:38:28;101780.31;;;-9.20;67.44
80137;BME280;69466;55.948;37.484;2023-12-07T11:40:59;101784.25;;;-9.04;67.66
80137;BME280;69466;55.948;37.484;2023-12-07T11:46:10;101807.31;;;-9.14;67.07
80137;BME280;69466;55.948;37.484;2023-12-07T11:48:36;101792.31;;;-9.12;67.53
80137;BME280;69466;55.948;37.484;2023-12-07T11:51:09;101787.06;;;-9.12;67.13
80137;BME280;69466;55.948;37.484;2023-12-07T11:53:36;101787.28;;;-9.19;66.95
80137;BME280;69466;55.948;37.484;2023-12-07T11:56:04;101776.78;;;-9.19;67.49
80137;BME280;69466;55.948;37.484;2023-12-07T11:58:32;101780.50;;;-9.26;67.82
80137;BME280;69466;55.948;37.484;2023-12-07T12:01:00;101788.38;;;-9.26;68.08
80137;BME280;69466;55.948;37.484;2023-12-07T12:03:28;101800.03;;;-9.36;67.49
80137;BME280;69466;55.948;37.484;2023-12-07T12:05:55;101777.78;;;-9.57;67.86
80137;BME280;69466;55.948;37.484;2023-12-07T12:08:21;101800.28;;;-9.46;68.24
80137;BME280;69466;55.948;37.484;2023-12-07T12:10:50;101795.41;;;-9.62;68.15
80137;BME280;69466;55.948;37.484;2023-12-07T12:13:18;101781.47;;;-9.64;68.63
80137;BME280;69466;55.948;37.484;2023-12-07T12:15:45;101792.78;;;-9.62;68.24
80137;BME280;69466;55.948;37.484;2023-12-07T12:18:14;101796.22;;;-9.59;68.78
80137;BME280;69466;55.948;37.484;2023-12-07T12:20:44;101792.91;;;-9.67;69.23
80137;BME280;69466;55.948;37.484;2023-12-07T12:23:10;101801.97;;;-9.78;69.06
80137;BME280;69466;55.948;37.484;2023-12-07T12:25:36;101790.69;;;-9.82;69.34
80137;BME280;69466;55.948;37.484;2023-12-07T12:28:05;101794.28;;;-9.86;69.78
80137;BME280;69466;55.948;37.484;2023-12-07T12:30:33;101796.84;;;-9.83;69.72
80137;BME280;69466;55.948;37.484;2023-12-07T12:32:59;101789.03;;;-9.86;69.39
80137;BME280;69466;55.948;37.484;2023-12-07T12:35:26;101796.69;;;-9.77;69.79
80137;BME280;69466;55.948;37.484;2023-12-07T12:37:52;101796.09;;;-9.90;70.21
80137;BME280;69466;55.948;37.484;2023-12-07T12:40:20;101794.53;;;-9.97;69.90
80137;BME280;69466;55.948;37.484;2023-12-07T12:42:51;101803.06;;;-9.87;70.09
80137;BME280;69466;55.948;37.484;2023-12-07T12:45:20;101790.81;;;-9.88;70.27
80137;BME280;69466;55.948;37.484;2023-12-07T12:47:47;101792.53;;;-9.85;70.16
80137;BME280;69466;55.948;37.484;2023-12-07T12:50:33;101807.22;;;-9.78;70.35
80137;BME280;69466;55.948;37.484;2023-12-07T12:53:03;101800.47;;;-9.89;70.13
80137;BME280;69466;55.948;37.484;2023-12-07T12:55:36;101779.31;;;-9.82;69.97
80137;BME280;69466;55.948;37.484;2023-12-07T12:58:06;101794.28;;;-9.86;69.63
80137;BME280;69466;55.948;37.484;2023-12-07T13:00:37;101809.81;;;-9.77;70.24
80137;BME280;69466;55.948;37.484;2023-12-07T13:03:07;101809.09;;;-9.83;70.17
80137;BME280;69466;55.948;37.484;2023-12-07T13:05:33;101815.03;;;-9.75;70.12
80137;BME280;69466;55.948;37.484;2023-12-07T13:08:01;101803.88;;;-9.85;69.42